Long Beach, New York
Current Conditions -  °F | °C
As of 11:51 PM on Friday 28 Nov 2014 (Local Time) from KJFK Reporting Station
Scattered Clouds Scattered Clouds  
Wind Chill: 22°   Ceiling: Unl
Heat Index: 28°   Visibility: 10mi
Dew Point: 10°   Wind: 6mph
Humidity: 47%   Direction: 350°N
Pressure: 30.29"   Gusts: NA
Location:  40.59°N, 73.67°W
Report Text: KJFK 290451Z 35005KT 10SM SCT250 M02/M12 A3029 RMK AO2 SLP255 T10221122 400501022
Loading
Personal Weather Stations






























Interactive Weather Map New forecast layout! Learn more

10-Day Weather Forecast

Advertisements
Track Severe Weather on mobile